Terminal Aerodrome Forecast
Issued by NWS

Home | Current Version | Previous Version | Text Only | Print | Product List | Glossary On
Versions: 1 2 3 4 5 6 7 8 9 10 11 12 13 14
000
FTUS46 KSEW 281700
TAFBFI
TAF
KBFI 281720Z 2818/2918 VRB04KT P6SM SKC
     FM282200 33007KT P6SM SKC
     FM290400 00000KT P6SM SKC
     FM291200 00000KT P6SM VCFG SCT005
      TEMPO 2913/2916 3SM BR BKN003
     FM291700 VRB04KT P6SM SKC=

USA.gov is the U.S. government's official web portal to all federal, state and local government web resources and services.